Time;durP1;ratioP1;P1;durP2;ratioP2;P2;SDS_P1;SDS_P2;PMS_P1;PMS_P2;Temp;Humidity;BMP_temperature;BMP_pressure;BME280_temperature;BME280_humidity;BME280_pressure;Samples;Min_cycle;Max_cycle;Signal;HPM_P1;HPM_P2
2023/02/12 00:01:27;;;;;;;20.80;14.60;;;;;;;0.84;100.00;99631.09;107822;1269;22544;-66
2023/02/12 00:03:56;;;;;;;18.40;14.10;;;;;;;0.85;100.00;99635.70;107868;1269;22539;-66
2023/02/12 00:06:25;;;;;;;19.40;13.80;;;;;;;0.87;100.00;99635.11;107683;1270;22685;-66
2023/02/12 00:08:54;;;;;;;18.80;13.40;;;;;;;0.83;100.00;99645.60;107670;1270;25281;-65
2023/02/12 00:11:27;;;;;;;19.00;13.40;;;;;;;0.80;100.00;99647.42;107534;1267;23117;-65
2023/02/12 00:13:56;;;;;;;17.50;12.50;;;;;;;0.84;100.00;99646.22;108050;1269;24349;-65
2023/02/12 00:16:26;;;;;;;17.40;12.30;;;;;;;0.88;100.00;99646.70;107868;1267;25324;-65
2023/02/12 00:18:55;;;;;;;15.80;12.50;;;;;;;0.91;100.00;99651.23;107809;1267;23479;-65
2023/02/12 00:21:24;;;;;;;14.60;11.70;;;;;;;0.92;100.00;99652.21;106890;1270;25346;-65
2023/02/12 00:23:52;;;;;;;14.70;11.20;;;;;;;0.89;100.00;99658.48;110346;1267;22969;-65
2023/02/12 00:26:21;;;;;;;14.10;10.10;;;;;;;0.90;100.00;99661.09;110432;1273;22466;-65
2023/02/12 00:28:50;;;;;;;13.80;10.10;;;;;;;0.93;100.00;99665.08;110420;1267;23067;-65
2023/02/12 00:31:20;;;;;;;13.90;10.30;;;;;;;0.97;100.00;99667.41;110410;1267;23057;-65
2023/02/12 00:33:49;;;;;;;14.60;10.00;;;;;;;1.02;100.00;99675.02;110456;1273;22333;-65
2023/02/12 00:36:19;;;;;;;12.40;9.40;;;;;;;1.04;100.00;99678.65;110419;1270;22336;-65
2023/02/12 00:38:50;;;;;;;11.00;8.50;;;;;;;1.05;100.00;99681.00;110336;1270;22212;-65
2023/02/12 00:41:18;;;;;;;12.20;8.80;;;;;;;1.05;100.00;99684.75;110446;1270;22298;-65
2023/02/12 00:43:47;;;;;;;12.70;9.40;;;;;;;1.02;100.00;99688.35;110458;1273;22423;-65
2023/02/12 00:46:15;;;;;;;12.60;9.00;;;;;;;1.04;100.00;99692.05;110349;1273;22274;-64
2023/02/12 00:48:45;;;;;;;12.70;8.50;;;;;;;1.08;100.00;99698.59;110316;1273;22329;-65
2023/02/12 00:51:14;;;;;;;11.50;7.70;;;;;;;1.13;100.00;99702.21;110451;1273;22322;-64
2023/02/12 00:53:43;;;;;;;9.50;6.50;;;;;;;1.16;100.00;99702.48;110324;1271;22897;-64
2023/02/12 00:56:12;;;;;;;8.50;6.10;;;;;;;1.18;100.00;99703.30;110482;1267;22391;-64
2023/02/12 00:58:40;;;;;;;7.20;4.90;;;;;;;1.23;100.00;99709.39;110441;1269;22924;-64
2023/02/12 01:01:09;;;;;;;6.80;5.10;;;;;;;1.28;100.00;99715.07;110442;1270;22376;-64
2023/02/12 01:03:38;;;;;;;7.90;5.80;;;;;;;1.33;100.00;99718.55;110354;1272;23229;-64
2023/02/12 01:06:06;;;;;;;9.10;5.90;;;;;;;1.35;100.00;99725.19;110426;1267;22419;-64
2023/02/12 01:08:35;;;;;;;7.00;5.50;;;;;;;1.34;100.00;99726.64;110459;1267;22410;-64
2023/02/12 01:11:04;;;;;;;7.30;5.00;;;;;;;1.34;100.00;99730.80;110347;1267;22432;-64
2023/02/12 01:13:36;;;;;;;6.80;4.90;;;;;;;1.36;100.00;99730.80;110316;1273;23001;-64
2023/02/12 01:16:07;;;;;;;6.20;4.20;;;;;;;1.36;100.00;99735.21;110440;1273;22302;-64
2023/02/12 01:18:36;;;;;;;5.70;4.50;;;;;;;1.37;100.00;99733.88;110468;1268;22853;-64
2023/02/12 01:21:17;;;;;;;5.70;3.90;;;;;;;1.42;100.00;99743.36;110404;1267;22385;-63
2023/02/12 01:23:46;;;;;;;6.20;4.20;;;;;;;1.44;100.00;99749.17;110383;1273;23276;-64
2023/02/12 01:26:15;;;;;;;5.30;3.90;;;;;;;1.44;100.00;99743.89;110446;1273;23352;-63
2023/02/12 01:28:44;;;;;;;5.90;3.50;;;;;;;1.45;100.00;99747.71;110427;1267;23031;-63
2023/02/12 01:31:17;;;;;;;5.50;3.90;;;;;;;1.46;100.00;99754.52;110486;1273;22352;-64
2023/02/12 01:33:47;;;;;;;5.00;3.50;;;;;;;1.42;100.00;99754.50;110440;1268;23269;-64
2023/02/12 01:36:16;;;;;;;5.00;3.40;;;;;;;1.41;100.00;99756.77;110427;1267;22412;-63
2023/02/12 01:38:44;;;;;;;4.80;3.10;;;;;;;1.41;100.00;99774.02;110464;1273;22271;-63
2023/02/12 01:41:15;;;;;;;4.70;3.00;;;;;;;1.41;100.00;99776.73;110454;1270;22398;-64
2023/02/12 01:43:45;;;;;;;5.80;3.10;;;;;;;1.37;100.00;99783.45;110348;1273;22388;-63
2023/02/12 01:46:14;;;;;;;4.40;2.80;;;;;;;1.40;100.00;99790.41;110441;1267;22345;-63
2023/02/12 01:48:44;;;;;;;5.10;3.00;;;;;;;1.43;100.00;99798.34;110372;1273;22208;-63
2023/02/12 01:51:15;;;;;;;3.30;2.40;;;;;;;1.46;100.00;99807.71;110385;1269;22412;-63
2023/02/12 01:53:49;;;;;;;3.70;2.60;;;;;;;1.44;100.00;99815.58;110398;1267;23691;-64
2023/02/12 01:56:18;;;;;;;3.20;2.10;;;;;;;1.44;100.00;99823.38;110359;1267;22911;-63
2023/02/12 01:58:46;;;;;;;3.70;2.70;;;;;;;1.44;100.00;99827.88;110344;1269;23432;-63
2023/02/12 02:01:18;;;;;;;3.60;2.40;;;;;;;1.43;100.00;99836.59;110315;1272;22181;-63
2023/02/12 02:03:48;;;;;;;3.80;2.40;;;;;;;1.40;100.00;99838.23;110301;1269;23032;-63
2023/02/12 02:06:20;;;;;;;3.70;2.20;;;;;;;1.34;100.00;99840.02;110357;1268;22432;-64
2023/02/12 02:08:48;;;;;;;3.30;2.10;;;;;;;1.24;100.00;99847.39;110335;1269;22409;-63
2023/02/12 02:16:59;;;;;;;3.10;2.00;;;;;;;1.18;100.00;99861.02;110525;1270;22353;-64
2023/02/12 02:19:54;;;;;;;3.20;1.70;;;;;;;1.14;100.00;99858.50;106635;1273;24229;-64
2023/02/12 02:22:41;;;;;;;2.90;1.60;;;;;;;1.02;100.00;99862.39;106735;1273;26566;-65
2023/02/12 02:26:06;;;;;;;2.60;1.40;;;;;;;0.93;100.00;99875.88;106935;1267;25388;-65
2023/02/12 02:29:06;;;;;;;2.40;1.30;;;;;;;0.88;100.00;99897.23;106149;1276;26570;-65
2023/02/12 02:32:01;;;;;;;1.80;1.10;;;;;;;0.76;100.00;99896.73;106200;1280;24050;-65
2023/02/12 02:35:08;;;;;;;1.80;1.00;;;;;;;0.73;100.00;99900.92;107070;1267;26703;-65
2023/02/12 02:37:44;;;;;;;2.20;1.00;;;;;;;0.70;100.00;99913.49;107791;1268;23788;-65
2023/02/12 02:40:18;;;;;;;2.20;0.90;;;;;;;0.62;100.00;99929.71;107081;1270;24018;-65
2023/02/12 02:42:53;;;;;;;1.70;1.00;;;;;;;0.63;100.00;99928.37;106888;1270;25343;-65
2023/02/12 02:45:44;;;;;;;1.50;0.90;;;;;;;0.60;100.00;99924.96;107152;1268;24354;-66
2023/02/12 02:48:34;;;;;;;1.70;0.60;;;;;;;0.51;100.00;99931.27;107769;1269;23582;-65
2023/02/12 02:51:10;;;;;;;1.40;0.60;;;;;;;0.49;100.00;99938.21;107727;1271;23388;-66
2023/02/12 02:53:47;;;;;;;2.20;0.90;;;;;;;0.40;100.00;99953.11;107741;1267;22559;-65
2023/02/12 02:56:17;;;;;;;1.20;0.60;;;;;;;0.33;100.00;99957.82;107639;1272;22513;-65
2023/02/12 02:58:57;;;;;;;3.70;0.90;;;;;;;0.30;100.00;99964.40;107744;1269;25382;-66
2023/02/12 03:01:45;;;;;;;1.60;0.80;;;;;;;0.26;100.00;99978.05;110392;1269;22429;-66
2023/02/12 03:04:19;;;;;;;1.70;0.80;;;;;;;0.24;100.00;99992.67;110441;1267;22236;-66
2023/02/12 03:07:03;;;;;;;1.50;0.60;;;;;;;0.28;100.00;99991.48;110421;1273;22187;-67
2023/02/12 03:09:41;;;;;;;1.40;0.70;;;;;;;0.24;100.00;100008.86;110321;1273;22271;-66
2023/02/12 03:12:13;;;;;;;1.50;0.70;;;;;;;0.23;100.00;100013.52;110254;1273;22388;-66
2023/02/12 03:14:57;;;;;;;2.10;0.80;;;;;;;0.19;100.00;100019.30;110214;1270;24014;-66
2023/02/12 03:17:28;;;;;;;3.80;1.60;;;;;;;0.19;100.00;100023.70;110360;1270;22380;-67
2023/02/12 03:20:23;;;;;;;5.50;2.50;;;;;;;0.14;100.00;100033.77;110264;1272;22273;-67
2023/02/12 03:23:03;;;;;;;3.70;1.60;;;;;;;0.07;100.00;100030.32;110434;1269;23261;-67
2023/02/12 03:25:55;;;;;;;3.30;1.50;;;;;;;0.06;100.00;100039.77;110347;1273;23201;-66
2023/02/12 03:28:27;;;;;;;4.10;1.30;;;;;;;-0.02;100.00;100053.02;110462;1268;22415;-67
2023/02/12 03:31:20;;;;;;;3.20;0.90;;;;;;;-0.04;100.00;100052.42;110383;1273;23107;-66
2023/02/12 03:34:12;;;;;;;2.30;0.70;;;;;;;-0.15;100.00;100066.19;110249;1273;22934;-67
2023/02/12 03:36:54;;;;;;;2.00;0.70;;;;;;;-0.17;100.00;100074.11;110415;1267;23071;-66
2023/02/12 03:39:41;;;;;;;1.40;0.50;;;;;;;-0.26;100.00;100078.86;110352;1269;22362;-67
2023/02/12 03:42:13;;;;;;;4.10;0.50;;;;;;;-0.34;100.00;100098.30;110461;1267;23318;-66
2023/02/12 03:44:52;;;;;;;3.50;0.60;;;;;;;-0.36;100.00;100095.36;110414;1267;22940;-67
2023/02/12 03:47:56;;;;;;;1.50;0.60;;;;;;;-0.46;100.00;100113.65;110278;1270;22418;-67
2023/02/12 03:50:53;;;;;;;2.50;0.80;;;;;;;-0.56;100.00;100115.79;110126;1273;22347;-66
2023/02/12 03:53:21;;;;;;;3.30;1.10;;;;;;;-0.65;100.00;100132.52;110481;1266;22913;-66
2023/02/12 03:55:51;;;;;;;3.40;0.90;;;;;;;-0.76;100.00;100136.60;110369;1273;23154;-66
2023/02/12 03:58:21;;;;;;;3.80;1.10;;;;;;;-0.79;100.00;100139.13;110331;1273;22336;-66
2023/02/12 04:00:49;;;;;;;4.40;1.00;;;;;;;-0.83;100.00;100144.06;110340;1270;22196;-66
2023/02/12 04:03:17;;;;;;;3.70;0.80;;;;;;;-0.87;100.00;100149.26;110274;1272;22339;-66
2023/02/12 04:05:46;;;;;;;3.60;0.80;;;;;;;-0.89;100.00;100156.11;110439;1270;23138;-66
2023/02/12 04:08:14;;;;;;;2.80;0.80;;;;;;;-0.94;100.00;100161.60;110417;1270;22963;-66
2023/02/12 04:10:52;;;;;;;3.20;0.70;;;;;;;-0.97;100.00;100167.23;110435;1270;22976;-66
2023/02/12 04:13:27;;;;;;;3.40;1.20;;;;;;;-0.99;100.00;100173.58;110458;1269;22491;-66
2023/02/12 04:16:06;;;;;;;4.20;1.10;;;;;;;-1.09;100.00;100175.44;110461;1273;23088;-66
2023/02/12 04:18:43;;;;;;;3.20;0.90;;;;;;;-1.12;100.00;100180.95;110434;1268;22445;-66
2023/02/12 04:21:12;;;;;;;;;;;;;;;-1.13;100.00;100186.10;110461;1273;23176;-66
2023/02/12 04:23:49;;;;;;;2.00;0.70;;;;;;;-1.19;100.00;100193.63;110449;1267;22605;-66
2023/02/12 04:26:27;;;;;;;3.00;0.90;;;;;;;-1.21;100.00;100202.77;110276;1273;22191;-66
2023/02/12 04:28:57;;;;;;;;;;;;;;;-1.29;100.00;100205.13;110453;1273;22457;-66
2023/02/12 04:31:34;;;;;;;3.00;0.90;;;;;;;-1.35;100.00;100205.46;110481;1273;22225;-66
2023/02/12 04:34:14;;;;;;;3.10;1.10;;;;;;;-1.32;100.00;100208.53;110338;1267;23337;-66
2023/02/12 04:36:57;;;;;;;3.50;1.00;;;;;;;-1.35;100.00;100210.47;110383;1270;22435;-66
2023/02/12 04:39:27;;;;;;;4.20;1.70;;;;;;;-1.36;100.00;100211.84;110431;1268;23364;-66
2023/02/12 04:42:02;;;;;;;4.00;1.30;;;;;;;-1.31;100.00;100218.06;110340;1269;23039;-66
2023/02/12 04:44:32;;;;;;;4.80;0.90;;;;;;;-1.33;100.00;100221.47;110450;1273;22294;-66
2023/02/12 04:47:00;;;;;;;2.30;0.70;;;;;;;-1.40;100.00;100223.24;110447;1273;22432;-66
2023/02/12 04:49:28;;;;;;;3.50;1.00;;;;;;;-1.41;100.00;100222.61;110437;1267;22443;-66
2023/02/12 04:51:57;;;;;;;4.20;1.70;;;;;;;-1.36;100.00;100226.71;110430;1269;22397;-67
2023/02/12 04:54:25;;;;;;;5.60;1.90;;;;;;;-1.38;100.00;100231.05;109195;1273;24095;-67
2023/02/12 04:56:53;;;;;;;3.80;1.30;;;;;;;-1.45;100.00;100232.08;107836;1272;29106;-66
2023/02/12 04:59:22;;;;;;;4.10;1.40;;;;;;;-1.52;100.00;100236.14;107738;1267;23370;-65
2023/02/12 05:01:50;;;;;;;4.20;1.00;;;;;;;-1.50;100.00;100241.54;107768;1273;24345;-65
2023/02/12 05:04:18;;;;;;;6.00;1.70;;;;;;;-1.56;100.00;100243.09;107825;1267;23003;-65
2023/02/12 05:06:46;;;;;;;4.80;1.70;;;;;;;-1.65;100.00;100251.15;107949;1268;22547;-65
2023/02/12 05:09:16;;;;;;;4.90;1.30;;;;;;;-1.69;100.00;100255.65;107799;1270;23202;-64
2023/02/12 05:11:47;;;;;;;5.10;2.00;;;;;;;-1.70;100.00;100262.16;107832;1270;23384;-64
2023/02/12 05:14:16;;;;;;;2.40;1.10;;;;;;;-1.76;100.00;100266.53;107883;1267;25408;-64
2023/02/12 05:16:45;;;;;;;3.80;1.20;;;;;;;-1.82;100.00;100282.52;106941;1273;22901;-64
2023/02/12 05:19:13;;;;;;;3.00;1.10;;;;;;;-1.89;100.00;100279.29;106802;1267;22824;-64
2023/02/12 05:21:42;;;;;;;4.20;1.40;;;;;;;-1.89;100.00;100288.85;106928;1268;23356;-64
2023/02/12 05:24:11;;;;;;;3.70;1.30;;;;;;;-1.89;100.00;100296.30;106930;1267;25333;-65
2023/02/12 05:26:39;;;;;;;3.50;1.40;;;;;;;-1.94;100.00;100299.06;106869;1270;25318;-64
2023/02/12 05:29:07;;;;;;;2.70;1.00;;;;;;;-1.99;100.00;100313.70;106862;1271;22672;-65
2023/02/12 05:31:36;;;;;;;2.70;0.70;;;;;;;-1.96;100.00;100314.98;106818;1267;27163;-64
2023/02/12 05:34:06;;;;;;;2.70;0.70;;;;;;;-1.97;100.00;100318.99;110464;1269;23127;-64
2023/02/12 05:36:34;;;;;;;3.10;1.10;;;;;;;-2.03;100.00;100332.64;110437;1267;22329;-65
2023/02/12 05:39:03;;;;;;;3.30;0.90;;;;;;;-2.05;100.00;100337.82;110483;1269;22325;-65
2023/02/12 05:41:34;;;;;;;3.40;1.00;;;;;;;-1.98;100.00;100345.39;110446;1273;22326;-64
2023/02/12 05:44:03;;;;;;;4.10;1.30;;;;;;;-1.95;100.00;100341.87;110371;1267;143502;-65
2023/02/12 05:47:48;;;;;;;3.00;0.70;;;;;;;-1.90;100.00;100354.77;103543;1308;545103;-64
2023/02/12 05:50:16;;;;;;;3.10;1.10;;;;;;;-1.91;100.00;100360.61;105824;1282;25445;-64
2023/02/12 05:52:45;;;;;;;3.00;0.90;;;;;;;-1.84;100.00;100367.45;109384;1283;23149;-65
2023/02/12 05:55:15;;;;;;;3.90;1.20;;;;;;;-1.77;100.00;100372.52;109424;1285;22405;-65
2023/02/12 05:57:43;;;;;;;3.30;1.40;;;;;;;-1.74;100.00;100381.05;109404;1282;22366;-64
2023/02/12 06:00:13;;;;;;;4.00;1.20;;;;;;;-1.71;100.00;100384.08;108925;1282;22542;-64
2023/02/12 06:02:42;;;;;;;3.90;1.30;;;;;;;-1.67;100.00;100384.52;105714;1280;25402;-64
2023/02/12 06:05:10;;;;;;;5.80;1.60;;;;;;;-1.59;100.00;100388.29;106027;1282;22525;-64
2023/02/12 06:07:40;;;;;;;5.90;1.70;;;;;;;-1.57;100.00;100397.11;106035;1285;25328;-64
2023/02/12 06:10:09;;;;;;;4.00;1.40;;;;;;;-1.56;100.00;100400.29;106008;1280;25335;-64
2023/02/12 06:12:39;;;;;;;4.00;1.20;;;;;;;-1.52;100.00;100404.29;109582;1282;22240;-65
2023/02/12 06:15:07;;;;;;;3.40;1.00;;;;;;;-1.42;100.00;100403.05;109569;1281;22438;-65
2023/02/12 06:17:37;;;;;;;3.30;1.00;;;;;;;-1.39;100.00;100407.77;109583;1287;23117;-65
2023/02/12 06:20:05;;;;;;;2.90;0.80;;;;;;;-1.38;100.00;100412.11;109584;1282;22380;-65
2023/02/12 06:22:37;;;;;;;2.40;0.80;;;;;;;-1.38;100.00;100411.41;109576;1284;23245;-64
2023/02/12 06:25:07;;;;;;;2.60;0.70;;;;;;;-1.34;100.00;100416.65;109556;1280;23037;-64
2023/02/12 06:27:36;;;;;;;2.40;0.50;;;;;;;-1.27;100.00;100421.84;109566;1286;23253;-65
2023/02/12 06:30:04;;;;;;;3.60;0.80;;;;;;;-1.24;100.00;100419.77;109564;1282;22372;-65
2023/02/12 06:32:33;;;;;;;2.90;0.80;;;;;;;-1.24;100.00;100423.55;109945;1275;22447;-64
2023/02/12 06:35:01;;;;;;;4.50;1.10;;;;;;;-1.25;100.00;100425.17;109821;1278;22563;-65
2023/02/12 06:37:29;;;;;;;2.90;0.70;;;;;;;-1.28;100.00;100424.83;109923;1275;22517;-65
2023/02/12 06:39:58;;;;;;;4.20;0.90;;;;;;;-1.30;100.00;100426.23;109911;1275;22202;-64
2023/02/12 06:42:26;;;;;;;2.90;0.90;;;;;;;-1.27;100.00;100426.45;109941;1276;22357;-64
2023/02/12 06:44:55;;;;;;;2.70;0.70;;;;;;;-1.27;100.00;100431.78;109946;1280;22368;-65
2023/02/12 06:47:24;;;;;;;4.10;0.90;;;;;;;-1.30;100.00;100430.70;109926;1275;23095;-65
2023/02/12 06:49:52;;;;;;;4.30;0.90;;;;;;;-1.33;100.00;100435.47;109928;1280;22989;-65
2023/02/12 06:52:21;;;;;;;3.80;1.20;;;;;;;-1.39;100.00;100437.36;109928;1273;22958;-65
2023/02/12 06:54:49;;;;;;;2.20;0.90;;;;;;;-1.43;100.00;100436.17;109924;1273;22399;-64
2023/02/12 06:57:17;;;;;;;2.40;0.70;;;;;;;-1.37;100.00;100446.85;109925;1277;22980;-65
2023/02/12 06:59:48;;;;;;;3.60;0.70;;;;;;;-1.29;100.00;100453.90;109926;1280;22406;-65
2023/02/12 07:02:16;;;;;;;3.20;1.00;;;;;;;-1.21;100.00;100468.17;109958;1273;22501;-64
2023/02/12 07:04:44;;;;;;;2.90;0.70;;;;;;;-1.12;100.00;100463.98;109928;1273;22387;-65
2023/02/12 07:07:12;;;;;;;3.70;0.90;;;;;;;-1.00;100.00;100466.85;109936;1276;22438;-66
2023/02/12 07:09:44;;;;;;;2.20;0.80;;;;;;;-0.90;100.00;100467.66;109930;1273;22352;-65
2023/02/12 07:12:12;;;;;;;6.00;1.30;;;;;;;-0.80;100.00;100476.02;109937;1273;23174;-66
2023/02/12 07:14:40;;;;;;;5.10;1.40;;;;;;;-0.64;100.00;100476.08;109960;1274;22353;-65
2023/02/12 07:17:09;;;;;;;3.60;1.00;;;;;;;-0.45;100.00;100480.27;109924;1279;22487;-65
2023/02/12 07:19:40;;;;;;;3.20;1.10;;;;;;;-0.34;100.00;100483.93;109926;1273;22408;-65
2023/02/12 07:22:08;;;;;;;5.30;1.90;;;;;;;-0.29;100.00;100486.55;109937;1276;22401;-65
2023/02/12 07:24:37;;;;;;;4.70;1.30;;;;;;;-0.25;100.00;100493.88;109946;1275;22345;-65
2023/02/12 07:27:10;;;;;;;5.00;1.30;;;;;;;-0.15;100.00;100480.92;109592;1275;22565;-65
2023/02/12 07:29:38;;;;;;;3.90;1.10;;;;;;;-0.12;100.00;100485.70;107342;1273;22652;-65
2023/02/12 07:32:08;;;;;;;4.10;1.10;;;;;;;-0.22;100.00;100483.14;107204;1280;23118;-65
2023/02/12 07:34:36;;;;;;;4.00;1.00;;;;;;;-0.30;100.00;100490.89;107157;1273;23307;-64
2023/02/12 07:37:06;;;;;;;2.20;0.70;;;;;;;-0.31;100.00;100481.13;107241;1273;22557;-64
2023/02/12 07:39:34;;;;;;;2.50;0.70;;;;;;;-0.33;100.00;100479.21;106424;1276;25346;-64
2023/02/12 07:42:04;;;;;;;2.70;0.80;;;;;;;-0.42;100.00;100480.11;106780;1280;25360;-64
2023/02/12 07:44:34;;;;;;;3.00;0.80;;;;;;;-0.53;100.00;100477.11;106293;1281;25545;-65
2023/02/12 07:47:04;;;;;;;2.40;0.80;;;;;;;-0.62;100.00;100480.65;106228;1273;23436;-64
2023/02/12 07:49:34;;;;;;;2.10;0.70;;;;;;;-0.70;100.00;100479.17;106335;1275;25379;-65
2023/02/12 07:52:02;;;;;;;4.10;1.10;;;;;;;-0.71;100.00;100488.85;107246;1274;26367;-65
2023/02/12 07:54:31;;;;;;;3.20;1.40;;;;;;;-0.68;100.00;100484.45;107072;1276;25491;-65
2023/02/12 07:57:00;;;;;;;2.90;0.90;;;;;;;-0.64;100.00;100492.66;107421;1281;26496;-65
2023/02/12 07:59:29;;;;;;;3.40;0.80;;;;;;;-0.62;100.00;100490.30;106470;1280;24282;-65
2023/02/12 08:01:59;;;;;;;3.10;0.90;;;;;;;-0.67;100.00;100496.77;106267;1281;26508;-64
2023/02/12 08:04:28;;;;;;;2.10;0.80;;;;;;;-0.67;100.00;100499.60;109996;1281;22286;-65
2023/02/12 08:06:56;;;;;;;2.70;1.00;;;;;;;-0.56;100.00;100512.21;110004;1280;22469;-65
2023/02/12 08:09:26;;;;;;;5.20;1.00;;;;;;;-0.46;100.00;100512.36;110023;1281;22923;-65
2023/02/12 08:11:54;;;;;;;3.00;1.10;;;;;;;-0.38;100.00;100521.53;109969;1279;23400;-65
2023/02/12 08:14:26;;;;;;;4.20;1.20;;;;;;;-0.28;100.00;100528.36;109991;1280;23029;-65
2023/02/12 08:16:55;;;;;;;3.30;1.10;;;;;;;-0.13;100.00;100531.35;110013;1280;22239;-65
2023/02/12 08:19:23;;;;;;;4.80;1.20;;;;;;;0.05;100.00;100540.26;109978;1276;22832;-66
2023/02/12 08:21:55;;;;;;;2.60;1.00;;;;;;;0.14;100.00;100545.41;109953;1281;22317;-65
2023/02/12 08:24:24;;;;;;;3.40;1.30;;;;;;;0.20;100.00;100553.98;109990;1280;22282;-66
2023/02/12 08:26:53;;;;;;;2.80;0.80;;;;;;;0.37;100.00;100550.73;109976;1280;23121;-65
2023/02/12 08:29:23;;;;;;;2.00;0.90;;;;;;;0.47;100.00;100545.81;110008;1281;22265;-65
2023/02/12 08:31:56;;;;;;;3.00;0.70;;;;;;;0.55;100.00;100543.77;109528;1281;23304;-63
2023/02/12 08:34:27;;;;;;;3.30;1.10;;;;;;;0.63;100.00;100551.33;107788;1280;24206;-65
2023/02/12 08:36:57;;;;;;;2.80;1.20;;;;;;;0.63;100.00;100550.13;106553;1280;22560;-64
2023/02/12 08:39:26;;;;;;;3.10;1.40;;;;;;;0.61;100.00;100555.88;106615;1281;25508;-65
2023/02/12 08:41:59;;;;;;;2.60;1.00;;;;;;;0.57;100.00;100561.27;106737;1280;22581;-65
2023/02/12 08:44:28;;;;;;;3.20;0.90;;;;;;;0.58;100.00;100574.85;107200;1281;23877;-65
2023/02/12 08:47:01;;;;;;;3.30;1.00;;;;;;;0.59;100.00;100581.13;106631;1278;22542;-64
2023/02/12 08:49:30;;;;;;;3.30;1.20;;;;;;;0.54;100.00;100577.07;106933;1281;25353;-65
2023/02/12 08:52:00;;;;;;;3.20;1.00;;;;;;;0.54;100.00;100574.21;106219;1280;25459;-65
2023/02/12 08:54:30;;;;;;;1.70;0.60;;;;;;;0.55;100.00;100583.22;106466;1281;22649;-64
2023/02/12 08:57:00;;;;;;;2.40;1.10;;;;;;;0.62;100.00;100583.92;107676;1276;23201;-65
2023/02/12 08:59:29;;;;;;;2.80;0.80;;;;;;;0.75;100.00;100583.10;109838;1277;22481;-65
2023/02/12 09:01:59;;;;;;;3.10;0.90;;;;;;;0.78;100.00;100587.92;108652;1273;22564;-66
2023/02/12 09:04:29;;;;;;;3.60;1.40;;;;;;;0.87;100.00;100591.34;109910;1276;22406;-63
2023/02/12 09:06:58;;;;;;;4.10;1.20;;;;;;;1.02;100.00;100594.48;109855;1275;22308;-64
2023/02/12 09:09:26;;;;;;;4.30;1.40;;;;;;;1.13;100.00;100590.30;109898;1275;22369;-64
2023/02/12 09:11:55;;;;;;;3.10;1.30;;;;;;;1.20;100.00;100594.66;109884;1275;23023;-62
2023/02/12 09:14:24;;;;;;;2.90;1.40;;;;;;;1.19;100.00;100593.98;109895;1273;23337;-63
2023/02/12 09:16:52;;;;;;;4.70;1.80;;;;;;;1.20;100.00;100600.16;109921;1280;22504;-64
2023/02/12 09:19:21;;;;;;;3.20;1.20;;;;;;;1.31;100.00;100600.02;109913;1276;22253;-63
2023/02/12 09:21:51;;;;;;;2.70;1.30;;;;;;;1.45;100.00;100594.45;109961;1273;23221;-64
2023/02/12 09:24:24;;;;;;;3.50;1.30;;;;;;;1.59;100.00;100596.50;109871;1276;22621;-64
2023/02/12 09:26:52;;;;;;;3.70;1.10;;;;;;;1.63;100.00;100599.09;109950;1279;22209;-64
2023/02/12 09:29:22;;;;;;;3.30;1.00;;;;;;;1.71;100.00;100602.89;109985;1277;23403;-63
2023/02/12 09:31:51;;;;;;;4.40;1.10;;;;;;;1.71;100.00;100600.19;110033;1279;23104;-63
2023/02/12 09:34:23;;;;;;;1.60;0.60;;;;;;;1.63;100.00;100613.02;109874;1280;22966;-64
2023/02/12 09:36:51;;;;;;;3.00;0.90;;;;;;;1.50;100.00;100609.67;109928;1280;22221;-64
2023/02/12 09:39:20;;;;;;;3.30;0.80;;;;;;;1.43;100.00;100617.77;110036;1272;22259;-63
2023/02/12 09:42:26;;;;;;;3.50;0.90;;;;;;;1.42;100.00;100617.73;110026;1273;22727;-61
2023/02/12 09:45:01;;;;;;;2.70;0.90;;;;;;;1.47;100.00;100614.09;109991;1280;23010;-63
2023/02/12 09:47:30;;;;;;;1.40;0.40;;;;;;;1.46;100.00;100610.41;109895;1278;22363;-63
2023/02/12 09:50:28;;;;;;;2.70;1.00;;;;;;;1.50;100.00;100608.54;110030;1280;22199;-63
2023/02/12 09:52:58;;;;;;;3.10;1.20;;;;;;;1.52;100.00;100618.48;109960;1280;22700;-64
2023/02/12 09:55:30;;;;;;;3.10;0.90;;;;;;;1.54;100.00;100620.88;110087;1277;22460;-63
2023/02/12 09:58:01;;;;;;;1.90;0.70;;;;;;;1.62;100.00;100614.40;109985;1273;22953;-63
2023/02/12 10:00:30;;;;;;;4.30;1.20;;;;;;;1.69;100.00;100603.61;109909;1280;22219;-63
2023/02/12 10:03:03;;;;;;;3.30;1.10;;;;;;;1.83;100.00;100606.66;110024;1280;22240;-63
2023/02/12 10:05:46;;;;;;;2.80;0.90;;;;;;;1.98;100.00;100603.60;110058;1280;22233;-63
2023/02/12 10:08:33;;;;;;;3.10;0.90;;;;;;;2.10;100.00;100601.21;109948;1280;22308;-62
2023/02/12 10:11:21;;;;;;;2.50;0.80;;;;;;;2.08;100.00;100604.04;110077;1280;22089;-62
2023/02/12 10:14:17;;;;;;;2.20;0.60;;;;;;;1.93;100.00;100608.42;110062;1280;22354;-63
2023/02/12 10:17:12;;;;;;;1.90;0.60;;;;;;;1.79;100.00;100604.30;107544;1257;22549;-61
2023/02/12 10:19:52;;;;;;;1.70;0.60;;;;;;;1.62;100.00;100606.73;106090;1280;25312;-63
2023/02/12 10:22:30;;;;;;;2.70;0.50;;;;;;;1.48;100.00;100603.91;106319;1280;25346;-63
2023/02/12 10:25:41;;;;;;;2.20;0.70;;;;;;;1.49;100.00;100611.88;106444;1280;25334;-63
2023/02/12 10:28:24;;;;;;;3.40;0.90;;;;;;;1.47;100.00;100612.35;106531;1273;27576;-63
2023/02/12 10:31:11;;;;;;;2.30;0.70;;;;;;;1.34;100.00;100617.56;106498;1272;25363;-63
2023/02/12 10:33:44;;;;;;;;;;;;;;;1.33;100.00;100614.57;107002;1279;22541;-63
2023/02/12 10:36:19;;;;;;;3.20;0.90;;;;;;;1.34;100.00;100615.40;109913;1275;22196;-66
2023/02/12 10:38:50;;;;;;;1.90;0.70;;;;;;;1.33;100.00;100621.20;110074;1273;22256;-64
2023/02/12 10:41:18;;;;;;;2.60;0.80;;;;;;;1.35;100.00;100622.23;110067;1280;22226;-64
2023/02/12 10:43:46;;;;;;;2.00;0.80;;;;;;;1.35;100.00;100620.58;110028;1279;22220;-64
2023/02/12 10:46:15;;;;;;;3.80;0.90;;;;;;;1.38;100.00;100628.33;110054;1275;22349;-64
2023/02/12 10:48:45;;;;;;;2.00;0.60;;;;;;;1.42;100.00;100623.33;110044;1280;22268;-64
2023/02/12 10:51:20;;;;;;;3.20;0.70;;;;;;;1.49;100.00;100622.80;109945;1280;22285;-64
2023/02/12 10:53:48;;;;;;;1.90;0.60;;;;;;;1.62;100.00;100621.38;110113;1276;22440;-64
2023/02/12 10:56:17;;;;;;;2.10;0.80;;;;;;;1.66;100.00;100623.55;110161;1276;22212;-66
2023/02/12 10:58:49;;;;;;;4.30;1.00;;;;;;;1.69;100.00;100624.70;110350;1274;23554;-65
2023/02/12 11:01:29;;;;;;;1.70;0.70;;;;;;;1.76;100.00;100627.07;109254;1276;22596;-65
2023/02/12 11:03:59;;;;;;;3.90;1.20;;;;;;;1.77;100.00;100631.01;107068;1276;25459;-65
2023/02/12 11:06:29;;;;;;;1.50;0.60;;;;;;;1.79;100.00;100639.58;106584;1276;25475;-63
2023/02/12 11:08:58;;;;;;;1.90;0.60;;;;;;;1.87;100.00;100641.42;106706;1276;25270;-63
2023/02/12 11:11:29;;;;;;;2.70;0.90;;;;;;;1.92;100.00;100653.16;106743;1270;24209;-64
2023/02/12 11:14:13;;;;;;;2.30;0.60;;;;;;;2.02;100.00;100652.61;106700;1276;22523;-64
2023/02/12 11:16:51;;;;;;;3.20;0.60;;;;;;;2.15;100.00;100645.37;106268;1276;26499;-63
2023/02/12 11:19:23;;;;;;;2.50;0.80;;;;;;;2.21;100.00;100648.19;106566;1273;27713;-64
2023/02/12 11:21:51;;;;;;;2.00;0.70;;;;;;;2.26;100.00;100650.30;106594;1276;24294;-64
2023/02/12 11:24:33;;;;;;;3.80;0.70;;;;;;;2.23;100.00;100651.66;106694;1276;25383;-64
2023/02/12 11:27:12;;;;;;;2.10;0.60;;;;;;;2.19;100.00;100650.70;106514;1276;22562;-64
2023/02/12 11:29:43;;;;;;;2.80;0.60;;;;;;;2.17;100.00;100655.05;106483;1276;26490;-64
2023/02/12 11:32:16;;;;;;;2.00;0.70;;;;;;;2.23;100.00;100659.52;107178;1276;22519;-64
2023/02/12 11:34:58;;;;;;;3.20;1.00;;;;;;;2.34;100.00;100656.98;107036;1269;25331;-65
2023/02/12 11:37:27;;;;;;;2.20;0.70;;;;;;;2.46;100.00;100654.06;107221;1276;23244;-64
2023/02/12 11:39:57;;;;;;;3.30;0.70;;;;;;;2.49;100.00;100649.13;110427;1273;22221;-65
2023/02/12 11:42:26;;;;;;;4.60;1.40;;;;;;;2.50;100.00;100652.06;110389;1276;22453;-65
2023/02/12 11:44:55;;;;;;;3.70;1.00;;;;;;;2.56;100.00;100651.86;110140;1276;23477;-65
2023/02/12 11:47:26;;;;;;;1.50;0.50;;;;;;;2.55;100.00;100650.23;110383;1276;22362;-65